createdAt,value
2019-01-19T00:01:27.689Z,-3.72
2019-01-19T00:04:29.636Z,-3.65
2019-01-19T00:07:16.515Z,-3.75
2019-01-19T00:09:54.387Z,-3.72
2019-01-19T00:12:32.251Z,-3.84
2019-01-19T00:15:03.198Z,-3.80
2019-01-19T00:17:48.907Z,-3.80
2019-01-19T00:20:20.032Z,-3.84
2019-01-19T00:23:05.658Z,-3.95
2019-01-19T00:25:55.538Z,-4.02
2019-01-19T00:28:30.342Z,-4.00
2019-01-19T00:31:06.189Z,-4.05
2019-01-19T00:33:53.527Z,-4.11
2019-01-19T00:36:46.235Z,-4.16
2019-01-19T00:39:33.102Z,-4.28
2019-01-19T00:42:28.917Z,-4.36
2019-01-19T00:45:15.909Z,-4.36
2019-01-19T00:47:56.941Z,-4.28
2019-01-19T00:50:37.463Z,-4.38
2019-01-19T00:53:07.598Z,-4.43
2019-01-19T00:56:06.853Z,-4.44
2019-01-19T00:58:48.160Z,-4.42
2019-01-19T01:01:43.910Z,-4.43
2019-01-19T01:04:33.559Z,-4.45
2019-01-19T01:07:14.655Z,-4.63
2019-01-19T01:09:54.519Z,-4.58
2019-01-19T01:12:59.603Z,-4.61
2019-01-19T01:15:35.883Z,-4.64
2019-01-19T01:18:19.227Z,-4.58
2019-01-19T01:21:06.487Z,-4.39
2019-01-19T01:23:52.186Z,-4.54
2019-01-19T01:26:37.788Z,-4.51
2019-01-19T01:29:24.774Z,-4.64
2019-01-19T01:32:04.365Z,-4.73
2019-01-19T01:35:06.651Z,-4.42
2019-01-19T01:37:49.640Z,-4.51
2019-01-19T01:40:21.690Z,-4.61
2019-01-19T01:43:05.161Z,-4.63
2019-01-19T01:45:58.402Z,-4.59
2019-01-19T01:48:36.009Z,-4.71
2019-01-19T01:51:28.910Z,-4.84
2019-01-19T01:54:11.075Z,-4.92
2019-01-19T01:56:38.544Z,-4.76
2019-01-19T01:59:17.552Z,-4.94
2019-01-19T02:01:51.482Z,-5.02
2019-01-19T02:04:32.534Z,-5.20
2019-01-19T02:07:34.573Z,-5.19
2019-01-19T02:10:24.028Z,-5.23
2019-01-19T02:13:29.098Z,-5.19
2019-01-19T02:16:14.994Z,-5.26
2019-01-19T02:19:19.703Z,-5.33
2019-01-19T02:22:05.506Z,-5.40
2019-01-19T02:24:46.678Z,-5.49
2019-01-19T02:27:30.234Z,-5.54
2019-01-19T02:30:19.831Z,-5.45
2019-01-19T02:32:50.427Z,-5.39
2019-01-19T02:35:25.328Z,-5.54
2019-01-19T02:38:06.327Z,-5.44
2019-01-19T02:40:40.119Z,-5.46
2019-01-19T02:43:29.759Z,-5.38
2019-01-19T02:46:19.383Z,-5.44
2019-01-19T02:49:04.390Z,-5.50
2019-01-19T02:51:45.824Z,-5.61
2019-01-19T02:54:28.247Z,-5.57
2019-01-19T02:57:27.408Z,-5.78
2019-01-19T03:00:00.171Z,-5.83
2019-01-19T03:02:47.075Z,-5.91
2019-01-19T03:05:24.118Z,-5.93
2019-01-19T03:08:20.060Z,-5.88
2019-01-19T03:11:08.879Z,-5.95
2019-01-19T03:13:55.711Z,-6.03
2019-01-19T03:16:48.722Z,-5.88
2019-01-19T03:19:35.576Z,-5.97
2019-01-19T03:22:21.438Z,-5.97
2019-01-19T03:25:11.293Z,-6.02
2019-01-19T03:27:46.205Z,-6.11
2019-01-19T03:30:33.037Z,-5.91
2019-01-19T03:33:34.959Z,-5.94
2019-01-19T03:36:08.114Z,-5.93
2019-01-19T03:38:55.327Z,-5.90
2019-01-19T03:41:41.191Z,-5.92
2019-01-19T03:44:31.071Z,-5.79
2019-01-19T03:47:16.748Z,-5.75
2019-01-19T03:50:09.813Z,-5.86
2019-01-19T03:52:59.785Z,-5.75
2019-01-19T03:55:52.609Z,-5.64
2019-01-19T03:58:32.885Z,-5.51
2019-01-19T04:01:32.098Z,-5.66
2019-01-19T04:04:17.733Z,-5.62
2019-01-19T04:07:07.641Z,-5.72
2019-01-19T04:09:56.464Z,-5.68
2019-01-19T04:12:43.347Z,-5.70
2019-01-19T04:15:23.236Z,-5.71
2019-01-19T04:17:56.046Z,-5.70
2019-01-19T04:20:46.084Z,-5.61
2019-01-19T04:23:13.464Z,-5.58
2019-01-19T04:25:51.968Z,-5.66
2019-01-19T04:28:21.054Z,-5.66
2019-01-19T04:30:51.392Z,-5.88
2019-01-19T04:33:18.771Z,-5.92
2019-01-19T04:35:46.243Z,-5.93
2019-01-19T04:38:13.587Z,-6.15
2019-01-19T04:40:40.926Z,-6.25
2019-01-19T04:43:08.303Z,-6.28
2019-01-19T04:45:35.643Z,-6.34
2019-01-19T04:48:03.314Z,-6.50
2019-01-19T04:50:30.750Z,-6.60
2019-01-19T04:52:58.176Z,-6.67
2019-01-19T04:55:25.558Z,-6.59
2019-01-19T04:57:52.903Z,-6.74
2019-01-19T05:00:20.282Z,-6.79
2019-01-19T05:02:47.631Z,-6.73
2019-01-19T05:05:14.983Z,-6.81
2019-01-19T05:07:42.404Z,-6.83
2019-01-19T05:10:09.899Z,-6.83
2019-01-19T05:12:37.373Z,-6.76
2019-01-19T05:15:06.538Z,-6.55
2019-01-19T05:17:33.906Z,-6.69
2019-01-19T05:20:01.270Z,-6.71
2019-01-19T05:22:28.621Z,-6.71
2019-01-19T05:24:56.010Z,-6.87
2019-01-19T05:27:23.431Z,-6.88
2019-01-19T05:29:50.779Z,-6.94
2019-01-19T05:32:18.300Z,-6.86
2019-01-19T05:34:45.761Z,-6.96
2019-01-19T05:37:13.124Z,-6.73
2019-01-19T05:39:40.486Z,-6.79
2019-01-19T05:42:07.840Z,-6.92
2019-01-19T05:44:35.230Z,-6.83
2019-01-19T05:47:02.582Z,-6.79
2019-01-19T05:49:29.968Z,-6.64
2019-01-19T05:51:57.444Z,-6.76
2019-01-19T05:54:24.823Z,-6.91
2019-01-19T05:56:52.198Z,-6.66
2019-01-19T05:59:19.546Z,-6.53
2019-01-19T06:01:46.994Z,-6.62
2019-01-19T06:04:14.576Z,-6.61
2019-01-19T06:06:46.593Z,-6.56
2019-01-19T06:09:11.331Z,-6.61
2019-01-19T06:11:38.719Z,-6.55
2019-01-19T06:14:06.563Z,-6.51
2019-01-19T06:16:34.003Z,-6.44
2019-01-19T06:19:01.479Z,-6.42
2019-01-19T06:21:32.208Z,-6.30
2019-01-19T06:23:59.565Z,-6.08
2019-01-19T06:26:27.016Z,-6.03
2019-01-19T06:28:54.492Z,-6.08
2019-01-19T06:31:21.855Z,-6.13
2019-01-19T06:33:49.242Z,-6.15
2019-01-19T06:36:16.663Z,-6.01
2019-01-19T06:38:43.995Z,-6.00
2019-01-19T06:41:11.372Z,-5.98
2019-01-19T06:43:38.760Z,-6.12
2019-01-19T06:46:06.243Z,-6.15
2019-01-19T06:48:33.586Z,-5.99
2019-01-19T06:51:01.026Z,-6.20
2019-01-19T06:53:28.423Z,-6.25
2019-01-19T06:55:55.884Z,-6.38
2019-01-19T06:58:23.357Z,-6.50
2019-01-19T07:00:50.835Z,-6.42
2019-01-19T07:03:18.210Z,-6.36
2019-01-19T07:05:45.678Z,-6.19
2019-01-19T07:08:13.018Z,-6.32
2019-01-19T07:10:40.395Z,-6.38
2019-01-19T07:13:07.788Z,-6.38
2019-01-19T07:15:35.147Z,-6.45
2019-01-19T07:18:02.527Z,-6.47
2019-01-19T07:20:31.034Z,-6.50
2019-01-19T07:22:58.602Z,-6.44
2019-01-19T07:25:26.057Z,-6.30
2019-01-19T07:27:53.442Z,-6.13
2019-01-19T07:30:20.963Z,-6.19
2019-01-19T07:32:48.439Z,-6.19
2019-01-19T07:35:16.095Z,-6.05
2019-01-19T07:37:43.513Z,-5.94
2019-01-19T07:40:12.133Z,-5.92
2019-01-19T07:42:40.578Z,-5.63
2019-01-19T07:45:08.271Z,-5.49
2019-01-19T07:47:35.968Z,-5.37
2019-01-19T07:50:03.898Z,-5.32
2019-01-19T07:52:31.261Z,-5.23
2019-01-19T07:54:58.940Z,-5.27
2019-01-19T07:57:31.266Z,-5.14
2019-01-19T07:59:55.630Z,-5.08
2019-01-19T08:02:23.020Z,-5.06
2019-01-19T08:04:50.514Z,-5.02
2019-01-19T08:07:17.921Z,-4.95
2019-01-19T08:09:45.302Z,-4.85
2019-01-19T08:12:12.881Z,-4.78
2019-01-19T08:14:40.329Z,-4.55
2019-01-19T08:17:07.707Z,-4.53
2019-01-19T08:19:35.130Z,-4.58
2019-01-19T08:22:02.590Z,-4.56
2019-01-19T08:24:29.990Z,-4.53
2019-01-19T08:26:57.391Z,-4.53
2019-01-19T08:29:24.763Z,-4.43
2019-01-19T08:31:52.166Z,-4.40
2019-01-19T08:34:19.566Z,-4.31
2019-01-19T08:36:46.985Z,-4.25
2019-01-19T08:39:14.371Z,-4.25
2019-01-19T08:41:41.842Z,-4.27
2019-01-19T08:44:09.203Z,-4.17
2019-01-19T08:46:36.606Z,-4.10
2019-01-19T08:49:03.969Z,-4.19
2019-01-19T08:51:31.383Z,-4.08
2019-01-19T08:53:58.855Z,-4.08
2019-01-19T08:56:26.585Z,-3.89
2019-01-19T08:58:53.967Z,-3.69
2019-01-19T09:01:21.383Z,-3.56
2019-01-19T09:03:48.780Z,-3.55
2019-01-19T09:06:16.250Z,-3.54
2019-01-19T09:08:43.660Z,-3.52
2019-01-19T09:11:11.053Z,-3.34
2019-01-19T09:13:38.469Z,-3.38
2019-01-19T09:16:12.886Z,-3.25
2019-01-19T09:18:40.392Z,-3.24
2019-01-19T09:21:07.878Z,-3.15
2019-01-19T09:23:40.428Z,-2.95
2019-01-19T09:26:09.472Z,-2.86
2019-01-19T09:28:37.074Z,-2.72
2019-01-19T09:31:04.498Z,-2.53
2019-01-19T09:33:31.860Z,-2.42
2019-01-19T09:35:59.238Z,-2.29
2019-01-19T09:38:26.676Z,-2.43
2019-01-19T09:40:54.140Z,-2.32
2019-01-19T09:43:21.627Z,-2.19
2019-01-19T09:45:49.105Z,-2.06
2019-01-19T09:48:16.566Z,-1.90
2019-01-19T09:50:43.987Z,-1.82
2019-01-19T09:53:11.414Z,-1.69
2019-01-19T09:55:38.825Z,-1.70
2019-01-19T09:58:06.166Z,-1.59
2019-01-19T10:00:36.668Z,-1.60
2019-01-19T10:03:02.956Z,-1.75
2019-01-19T10:05:30.366Z,-1.93
2019-01-19T10:07:57.760Z,-1.84
2019-01-19T10:10:25.211Z,-1.89
2019-01-19T10:12:53.001Z,-2.00
2019-01-19T10:15:20.432Z,-1.88
2019-01-19T10:17:47.842Z,-1.81
2019-01-19T10:20:16.850Z,-2.14
2019-01-19T10:22:44.262Z,-2.04
2019-01-19T10:25:11.811Z,-2.02
2019-01-19T10:27:39.308Z,-1.92
2019-01-19T10:30:08.351Z,-2.14
2019-01-19T10:32:35.883Z,-2.20
2019-01-19T10:35:04.456Z,-2.19
2019-01-19T10:37:31.845Z,-2.17
2019-01-19T10:39:59.307Z,-2.02
2019-01-19T10:42:26.776Z,-1.68
2019-01-19T10:44:54.256Z,-1.72
2019-01-19T10:47:21.744Z,-1.20
2019-01-19T10:49:49.123Z,-1.05
2019-01-19T10:52:16.541Z,-1.07
2019-01-19T10:54:44.029Z,-0.66
2019-01-19T10:57:11.506Z,-0.37
2019-01-19T10:59:38.908Z,0.38
2019-01-19T11:02:06.274Z,1.01
2019-01-19T11:04:33.679Z,1.46
2019-01-19T11:07:01.095Z,3.24
2019-01-19T11:09:28.514Z,5.20
2019-01-19T11:11:55.938Z,7.25
2019-01-19T11:14:23.352Z,8.89
2019-01-19T11:16:50.834Z,10.20
2019-01-19T11:19:18.238Z,11.27
2019-01-19T11:21:45.626Z,11.37
2019-01-19T11:24:13.030Z,12.16
2019-01-19T11:26:40.382Z,12.63
2019-01-19T11:29:07.866Z,13.29
2019-01-19T11:31:35.214Z,14.03
2019-01-19T11:34:02.968Z,14.36
2019-01-19T11:36:30.488Z,14.66
2019-01-19T11:38:57.851Z,14.60
2019-01-19T11:41:25.251Z,14.53
2019-01-19T11:43:52.630Z,13.12
2019-01-19T11:46:20.367Z,12.44
2019-01-19T11:48:47.731Z,11.94
2019-01-19T11:51:15.228Z,9.76
2019-01-19T11:53:42.678Z,8.62
2019-01-19T11:56:12.319Z,7.40
2019-01-19T11:58:39.350Z,5.95
2019-01-19T12:01:07.326Z,5.13
2019-01-19T12:03:34.819Z,4.54
2019-01-19T12:06:02.591Z,3.75
2019-01-19T12:08:30.076Z,3.45
2019-01-19T12:10:57.477Z,2.86
2019-01-19T12:13:24.853Z,2.01
2019-01-19T12:15:52.251Z,1.64
2019-01-19T12:18:19.611Z,1.47
2019-01-19T12:20:48.047Z,1.44
2019-01-19T12:23:15.469Z,1.10
2019-01-19T12:25:42.922Z,0.94
2019-01-19T12:28:10.421Z,0.76
2019-01-19T12:30:37.797Z,0.69
2019-01-19T12:33:05.256Z,0.74
2019-01-19T12:35:32.738Z,0.75
2019-01-19T12:38:00.213Z,0.44
2019-01-19T12:40:27.619Z,0.38
2019-01-19T12:42:56.175Z,0.33
2019-01-19T12:45:28.252Z,0.21
2019-01-19T12:47:55.630Z,0.12
2019-01-19T12:50:23.487Z,0.16
2019-01-19T12:52:51.071Z,-0.02
2019-01-19T12:55:18.500Z,-0.24
2019-01-19T12:57:45.890Z,-0.46
2019-01-19T13:00:14.728Z,-0.48
2019-01-19T13:02:42.229Z,-0.39
2019-01-19T13:05:12.382Z,-0.49
2019-01-19T13:07:39.819Z,-0.52
2019-01-19T13:10:11.145Z,-0.58
2019-01-19T13:12:41.318Z,-0.60
2019-01-19T13:15:18.939Z,-0.73
2019-01-19T13:17:55.523Z,-0.87
2019-01-19T13:20:51.591Z,-0.85
2019-01-19T13:23:47.530Z,-0.87
2019-01-19T13:26:40.226Z,-0.85
2019-01-19T13:29:27.202Z,-0.97
2019-01-19T13:32:29.230Z,-0.97
2019-01-19T13:35:21.978Z,-0.97
2019-01-19T13:38:14.753Z,-1.04
2019-01-19T13:41:04.455Z,-0.96
2019-01-19T13:43:57.866Z,-0.97
2019-01-19T13:46:30.419Z,-1.07
2019-01-19T13:49:23.171Z,-1.13
2019-01-19T13:52:15.425Z,-1.19
2019-01-19T13:55:20.472Z,-1.15
2019-01-19T13:58:13.435Z,-1.16
2019-01-19T14:01:09.507Z,-1.13
2019-01-19T14:03:42.340Z,-1.14
2019-01-19T14:06:31.474Z,-1.04
2019-01-19T14:09:17.498Z,-1.11
2019-01-19T14:12:19.787Z,-1.19
2019-01-19T14:14:52.090Z,-1.21
2019-01-19T14:17:38.987Z,-1.17
2019-01-19T14:20:44.627Z,-1.15
2019-01-19T14:23:16.821Z,-1.15
2019-01-19T14:25:47.815Z,-1.15
2019-01-19T14:28:37.974Z,-1.17
2019-01-19T14:31:13.065Z,-1.12
2019-01-19T14:33:46.410Z,-1.19
2019-01-19T14:36:33.349Z,-1.18
2019-01-19T14:39:20.243Z,-1.22
2019-01-19T14:41:51.028Z,-1.18
2019-01-19T14:44:31.548Z,-1.18
2019-01-19T14:47:04.481Z,-1.22
2019-01-19T14:49:50.264Z,-1.20
2019-01-19T14:52:46.124Z,-1.12
2019-01-19T14:55:18.870Z,-1.20
2019-01-19T14:57:49.198Z,-1.27
2019-01-19T15:00:29.487Z,-1.28
2019-01-19T15:03:13.430Z,-1.32
2019-01-19T15:06:03.299Z,-1.37
2019-01-19T15:08:42.216Z,-1.40
2019-01-19T15:11:28.243Z,-1.39
2019-01-19T15:13:58.834Z,-1.35
2019-01-19T15:16:49.874Z,-1.44
2019-01-19T15:19:52.283Z,-1.45
2019-01-19T15:22:42.016Z,-1.53
2019-01-19T15:25:27.639Z,-1.56
2019-01-19T15:28:08.375Z,-1.66
2019-01-19T15:30:42.631Z,-1.70
2019-01-19T15:33:29.542Z,-1.69
2019-01-19T15:36:28.651Z,-1.74
2019-01-19T15:39:00.683Z,-1.77
2019-01-19T15:41:33.819Z,-1.83
2019-01-19T15:44:10.931Z,-1.84
2019-01-19T15:47:06.675Z,-1.84
2019-01-19T15:49:53.587Z,-1.92
2019-01-19T15:52:43.562Z,-1.95
2019-01-19T15:55:33.406Z,-2.00
2019-01-19T15:58:22.921Z,-2.11
2019-01-19T16:01:09.888Z,-2.19
2019-01-19T16:03:59.874Z,-2.37
2019-01-19T16:06:49.712Z,-2.43
2019-01-19T16:09:35.548Z,-2.51
2019-01-19T16:12:06.708Z,-2.62
2019-01-19T16:14:56.666Z,-2.56
2019-01-19T16:17:40.855Z,-2.51
2019-01-19T16:20:22.528Z,-2.69
2019-01-19T16:22:59.019Z,-2.62
2019-01-19T16:25:50.448Z,-2.54
2019-01-19T16:28:37.875Z,-2.69
2019-01-19T16:31:27.898Z,-2.70
2019-01-19T16:34:20.743Z,-2.64
2019-01-19T16:37:03.719Z,-2.70
2019-01-19T16:39:49.142Z,-2.92
2019-01-19T16:42:28.044Z,-2.81
2019-01-19T16:44:59.870Z,-2.84
2019-01-19T16:47:38.030Z,-2.85
2019-01-19T16:50:25.831Z,-3.07
2019-01-19T16:52:58.277Z,-3.15
2019-01-19T16:55:45.182Z,-3.16
2019-01-19T16:58:24.405Z,-3.28
2019-01-19T17:01:29.772Z,-3.32
2019-01-19T17:04:16.038Z,-3.33
2019-01-19T17:06:46.717Z,-3.40
2019-01-19T17:09:22.451Z,-3.53
2019-01-19T17:12:06.852Z,-3.66
2019-01-19T17:14:52.477Z,-3.79
2019-01-19T17:17:42.196Z,-3.96
2019-01-19T17:20:18.293Z,-4.04
2019-01-19T17:23:07.411Z,-4.17
2019-01-19T17:26:09.506Z,-4.24
2019-01-19T17:28:44.218Z,-4.26
2019-01-19T17:31:18.591Z,-4.35
2019-01-19T17:33:49.080Z,-4.42
2019-01-19T17:36:29.418Z,-4.50
2019-01-19T17:39:22.085Z,-4.57
2019-01-19T17:42:01.482Z,-4.54
2019-01-19T17:44:43.794Z,-4.56
2019-01-19T17:47:14.729Z,-4.58
2019-01-19T17:49:54.798Z,-4.67
2019-01-19T17:52:41.698Z,-4.81
2019-01-19T17:55:28.649Z,-4.94
2019-01-19T17:58:18.285Z,-5.00
2019-01-19T18:00:53.000Z,-5.05
2019-01-19T18:03:42.930Z,-4.96
2019-01-19T18:06:23.388Z,-5.04
2019-01-19T18:09:10.349Z,-5.13
2019-01-19T18:11:43.817Z,-5.23
2019-01-19T18:14:18.083Z,-5.33
2019-01-19T18:16:54.588Z,-5.35
2019-01-19T18:19:50.875Z,-5.40
2019-01-19T18:22:26.162Z,-5.42
2019-01-19T18:25:16.474Z,-5.46
2019-01-19T18:28:06.501Z,-5.44
2019-01-19T18:31:02.683Z,-5.46
2019-01-19T18:33:39.368Z,-5.51
2019-01-19T18:36:25.221Z,-5.52
2019-01-19T18:39:21.375Z,-5.50
2019-01-19T18:41:56.532Z,-5.48
2019-01-19T18:44:49.527Z,-5.48
2019-01-19T18:47:31.821Z,-5.43
2019-01-19T18:50:22.297Z,-5.55
2019-01-19T18:53:11.965Z,-5.62
2019-01-19T18:56:01.676Z,-5.74
2019-01-19T18:58:47.520Z,-5.61
2019-01-19T19:01:37.493Z,-5.61
2019-01-19T19:04:10.746Z,-5.65
2019-01-19T19:07:00.687Z,-5.63
2019-01-19T19:09:53.633Z,-5.57
2019-01-19T19:12:34.809Z,-5.65
2019-01-19T19:15:22.541Z,-5.56
2019-01-19T19:18:15.576Z,-5.59
2019-01-19T19:20:58.444Z,-5.63
2019-01-19T19:23:41.699Z,-5.65
2019-01-19T19:26:15.342Z,-5.64
2019-01-19T19:29:04.844Z,-5.63
2019-01-19T19:31:41.023Z,-5.64
2019-01-19T19:34:18.035Z,-5.60
2019-01-19T19:37:08.186Z,-5.56
2019-01-19T19:39:58.161Z,-5.58
2019-01-19T19:42:43.960Z,-5.62
2019-01-19T19:45:29.661Z,-5.61
2019-01-19T19:48:19.815Z,-5.61
2019-01-19T19:51:21.874Z,-5.57
2019-01-19T19:53:49.256Z,-5.53
2019-01-19T19:56:16.131Z,-5.61
2019-01-19T19:58:43.582Z,-5.66
2019-01-19T20:01:11.025Z,-5.73
2019-01-19T20:03:38.530Z,-5.85
2019-01-19T20:06:05.902Z,-5.84
2019-01-19T20:08:33.423Z,-5.79
2019-01-19T20:11:01.341Z,-5.85
2019-01-19T20:13:28.728Z,-5.78
2019-01-19T20:15:56.294Z,-5.71
2019-01-19T20:18:23.790Z,-5.74
2019-01-19T20:20:51.179Z,-5.78
2019-01-19T20:23:18.600Z,-5.85
2019-01-19T20:25:46.094Z,-5.87
2019-01-19T20:28:13.475Z,-5.90
2019-01-19T20:30:40.900Z,-6.01
2019-01-19T20:33:08.304Z,-5.95
2019-01-19T20:35:35.782Z,-6.05
2019-01-19T20:38:03.315Z,-6.08
2019-01-19T20:40:30.687Z,-6.08
2019-01-19T20:42:58.065Z,-6.12
2019-01-19T20:45:25.574Z,-6.11
2019-01-19T20:47:52.983Z,-6.16
2019-01-19T20:50:20.486Z,-6.16
2019-01-19T20:52:47.979Z,-6.21
2019-01-19T20:55:15.569Z,-6.22
2019-01-19T20:57:42.971Z,-6.20
2019-01-19T21:00:13.140Z,-6.23
2019-01-19T21:02:40.545Z,-6.20
2019-01-19T21:05:07.940Z,-6.22
2019-01-19T21:07:35.368Z,-6.25
2019-01-19T21:10:03.676Z,-6.20
2019-01-19T21:12:31.077Z,-6.19
2019-01-19T21:14:58.601Z,-6.30
2019-01-19T21:17:26.124Z,-6.28
2019-01-19T21:19:53.500Z,-6.21
2019-01-19T21:22:20.909Z,-6.26
2019-01-19T21:24:48.318Z,-6.24
2019-01-19T21:27:15.687Z,-6.26
2019-01-19T21:29:43.106Z,-6.21
2019-01-19T21:32:10.611Z,-6.23
2019-01-19T21:34:38.102Z,-6.35
2019-01-19T21:37:05.548Z,-6.44
2019-01-19T21:39:32.958Z,-6.51
2019-01-19T21:42:00.338Z,-6.55
2019-01-19T21:44:27.763Z,-6.51
2019-01-19T21:46:55.242Z,-6.60
2019-01-19T21:49:22.762Z,-6.60
2019-01-19T21:51:50.250Z,-6.67
2019-01-19T21:54:17.996Z,-6.67
2019-01-19T21:56:45.434Z,-6.63
2019-01-19T21:59:12.820Z,-6.62
2019-01-19T22:01:40.222Z,-6.56
2019-01-19T22:04:07.723Z,-6.61
2019-01-19T22:06:35.177Z,-6.64
2019-01-19T22:09:04.443Z,-6.67
2019-01-19T22:11:31.894Z,-6.65
2019-01-19T22:13:59.385Z,-6.66
2019-01-19T22:16:26.742Z,-6.60
2019-01-19T22:18:54.166Z,-6.64
2019-01-19T22:21:21.570Z,-6.66
2019-01-19T22:23:49.056Z,-6.72
2019-01-19T22:26:18.495Z,-6.71
2019-01-19T22:28:45.872Z,-6.67
2019-01-19T22:31:13.241Z,-6.67
2019-01-19T22:33:40.759Z,-6.69
2019-01-19T22:36:08.179Z,-6.63
2019-01-19T22:38:35.586Z,-6.67
2019-01-19T22:41:02.968Z,-6.72
2019-01-19T22:43:31.421Z,-6.78
2019-01-19T22:45:58.831Z,-6.83
2019-01-19T22:48:26.209Z,-6.83
2019-01-19T22:50:53.596Z,-6.76
2019-01-19T22:53:21.198Z,-6.78
2019-01-19T22:55:48.783Z,-6.80
2019-01-19T22:58:16.194Z,-6.81
2019-01-19T23:01:05.897Z,-6.81
2019-01-19T23:03:34.651Z,-6.84
2019-01-19T23:06:02.103Z,-6.87
2019-01-19T23:08:29.524Z,-6.86
2019-01-19T23:11:01.116Z,-6.84
2019-01-19T23:13:26.260Z,-6.93
2019-01-19T23:15:54.025Z,-6.97
2019-01-19T23:18:21.538Z,-6.98
2019-01-19T23:20:49.062Z,-6.92
2019-01-19T23:23:16.558Z,-6.96
2019-01-19T23:25:43.938Z,-6.93
2019-01-19T23:28:11.358Z,-6.91
2019-01-19T23:30:38.877Z,-6.84
2019-01-19T23:33:06.467Z,-6.84
2019-01-19T23:35:33.883Z,-6.82
2019-01-19T23:38:01.313Z,-6.80
2019-01-19T23:40:28.794Z,-6.85
2019-01-19T23:42:56.266Z,-6.82
2019-01-19T23:45:23.758Z,-6.81
2019-01-19T23:47:51.218Z,-6.78
2019-01-19T23:50:18.737Z,-6.75
2019-01-19T23:52:46.122Z,-6.75
2019-01-19T23:55:13.653Z,-6.73
2019-01-19T23:57:41.064Z,-6.71
